PAUN/UNK METAR and TAF weather

Enter ICAO airport designator
Station Type Date Time Source
PAUN METAR 2022/01/23 10:56 UTC NOAA

PAUN 231056Z AUTO 00000KT 10SM CLR M14/M17 A2974 RMK AO2 SLP075 T11441172 FZRANO


Station Type Date Time Source
PAUN Decoded METAR 2022/01/23 10:56 UTC NOAA

Unalakleet, AK, United States (PAUN) 63-53N 160-48W 6M
Jan 23, 2022 - 05:56 AM EST / 2022.01.23 1056 UTC
Wind: Calm:0
Visibility: 10 mile(s):0
Sky conditions: clear
Temperature: 6.1 F (-14.4 C)
Dew Point: 1.0 F (-17.2 C)
Relative Humidity: 79%
Pressure (altimeter): 29.74 in. Hg (1007 hPa)
ob: PAUN 231056Z AUTO 00000KT 10SM CLR M14/M17 A2974 RMK AO2 SLP075 T11441172 FZRANO
cycle: 11

Station Type Date Time Source
PAUN TAF 2022/01/23 12:42 UTC NOAA

TAF PAUN 231140Z 2312/2412 VRB05KT P6SM FEW100
FM240000 08017KT 3SM -SN OVC025
FM240600 08020G25KT 1 1/2SM -SN BR OVC015

Example: see airport list